createdAt,value
2022-10-18T00:02:58.875Z,102019.19
2022-10-18T00:06:44.252Z,102016.56
2022-10-18T00:10:21.980Z,102001.50
2022-10-18T00:13:24.547Z,102010.31
2022-10-18T00:17:10.580Z,102011.22
2022-10-18T00:28:41.787Z,101996.22
2022-10-18T00:31:50.431Z,101987.34
2022-10-18T00:34:58.775Z,101997.09
2022-10-18T00:38:50.894Z,101975.87
2022-10-18T00:42:00.041Z,101977.62
2022-10-18T00:45:26.822Z,101989.16
2022-10-18T00:48:57.355Z,101988.28
2022-10-18T00:52:49.998Z,101988.28
2022-10-18T00:55:58.792Z,101995.34
2022-10-18T00:59:33.777Z,101968.69
2022-10-18T01:02:45.038Z,101975.81
2022-10-18T01:06:00.015Z,101973.22
2022-10-18T01:09:21.505Z,101961.72
2022-10-18T01:13:30.860Z,101975.87
2022-10-18T01:17:14.851Z,101952.03
2022-10-18T01:21:19.940Z,101959.97
2022-10-18T01:29:36.767Z,101953.78
2022-10-18T01:33:12.656Z,101921.91
2022-10-18T01:36:52.834Z,101956.44
2022-10-18T01:40:26.022Z,101935.19
2022-10-18T01:43:36.267Z,101952.88
2022-10-18T01:47:05.780Z,101932.53
2022-10-18T01:50:39.988Z,101936.97
2022-10-18T01:53:57.919Z,101931.66
2022-10-18T01:57:45.788Z,101898.97
2022-10-18T02:01:37.983Z,101894.53
2022-10-18T02:05:27.256Z,101933.50
2022-10-18T02:08:47.783Z,101928.16
2022-10-18T02:12:00.769Z,101918.41
2022-10-18T02:15:20.828Z,101919.31
2022-10-18T02:18:49.195Z,101921.97
2022-10-18T02:22:15.780Z,101912.22
2022-10-18T02:25:38.907Z,101910.47
2022-10-18T02:28:55.079Z,101916.69
2022-10-18T02:32:18.840Z,101922.84
2022-10-18T02:36:00.046Z,101924.66
2022-10-18T02:39:33.979Z,101929.06
2022-10-18T02:43:03.879Z,101928.09
2022-10-18T02:46:19.224Z,101929.06
2022-10-18T02:54:04.035Z,101925.56
2022-10-18T02:57:55.192Z,101930.88
2022-10-18T03:01:22.853Z,101924.72
2022-10-18T03:04:31.859Z,101920.28
2022-10-18T03:07:42.997Z,101929.16
2022-10-18T03:15:27.127Z,101927.38
2022-10-18T03:23:04.427Z,101940.62
2022-10-18T03:26:53.231Z,101945.94
2022-10-18T03:30:41.786Z,101941.53
2022-10-18T03:34:16.795Z,101942.41
2022-10-18T03:37:25.272Z,101937.91
2022-10-18T03:40:55.182Z,101906.00
2022-10-18T03:44:09.824Z,101945.84
2022-10-18T03:47:39.164Z,101941.41
2022-10-18T03:51:33.864Z,101929.00
2022-10-18T03:59:05.556Z,101944.06
2022-10-18T04:06:45.907Z,101928.22
2022-10-18T04:10:41.071Z,101950.38
2022-10-18T04:14:09.462Z,101945.09
2022-10-18T04:17:35.244Z,101940.66
2022-10-18T05:02:21.911Z,101906.06
2022-10-18T05:06:03.223Z,101906.06
2022-10-18T05:09:44.387Z,101905.25
2022-10-18T05:13:23.688Z,101907.94
2022-10-18T05:16:58.408Z,101894.63
2022-10-18T05:20:20.254Z,101909.69
2022-10-18T05:23:55.395Z,101906.12
2022-10-18T05:27:43.412Z,101909.69
2022-10-18T05:30:52.619Z,101896.41
2022-10-18T05:34:27.471Z,101914.13
2022-10-18T05:37:55.427Z,101901.72
2022-10-18T06:04:19.811Z,101916.00
2022-10-18T06:08:30.779Z,101911.87
2022-10-18T06:20:38.343Z,101911.34
2022-10-18T06:28:08.931Z,101758.53
2022-10-18T07:01:06.796Z,101939.13
2022-10-18T07:28:09.562Z,101943.62
2022-10-18T07:51:32.424Z,101917.84
2022-10-18T07:59:32.558Z,101847.22
2022-10-18T08:10:45.060Z,101891.16
2022-10-18T17:07:14.717Z,101384.91
2022-10-18T18:26:52.020Z,101163.91
2022-10-18T19:46:41.612Z,101318.34
2022-10-18T20:07:15.356Z,101318.78
2022-10-18T20:23:53.524Z,101294.25
2022-10-18T20:27:57.466Z,101268.94
2022-10-18T20:32:12.424Z,101284.47
2022-10-18T20:40:27.106Z,101301.81
2022-10-18T20:48:01.879Z,101284.16
2022-10-18T20:52:36.889Z,101291.22
2022-10-18T20:56:38.388Z,101293.03
2022-10-18T21:00:24.440Z,101290.44
2022-10-18T21:04:32.616Z,101275.38
2022-10-18T21:08:01.195Z,101106.75
2022-10-18T21:12:04.834Z,101279.97
2022-10-18T21:15:58.997Z,101276.47
2022-10-18T21:19:33.656Z,101280.87
2022-10-18T21:23:25.991Z,101093.91
2022-10-18T21:27:19.231Z,101275.78
2022-10-18T21:31:11.728Z,101291.78
2022-10-18T21:34:58.492Z,101285.50
2022-10-18T21:38:53.536Z,101284.75
2022-10-18T21:42:43.481Z,101271.34
2022-10-18T21:46:38.731Z,101256.38
2022-10-18T22:10:50.546Z,101228.34
2022-10-18T22:18:29.072Z,101222.03
2022-10-18T22:22:17.516Z,101225.47
2022-10-18T22:26:15.572Z,101221.94
2022-10-18T22:30:20.584Z,101216.56
2022-10-18T22:34:14.612Z,101201.47
2022-10-18T22:38:14.505Z,101214.59
2022-10-18T22:46:22.323Z,101210.84
2022-10-18T22:50:31.202Z,101209.09
2022-10-18T22:54:28.176Z,101194.91
2022-10-18T22:58:30.439Z,101213.31
2022-10-18T23:06:39.352Z,101209.87
2022-10-18T23:10:58.882Z,101201.97
2022-10-18T23:14:48.255Z,101059.91
2022-10-18T23:18:44.832Z,101190.41
2022-10-18T23:23:05.497Z,101123.56
2022-10-18T23:27:00.219Z,101188.50
2022-10-18T23:31:04.808Z,101197.22
2022-10-18T23:35:40.143Z,101081.37
2022-10-18T23:39:41.013Z,101072.78
2022-10-18T23:55:58.821Z,101000.16
2022-10-18T23:59:56.962Z,101180.84
